Time;durP1;ratioP1;P1;durP2;ratioP2;P2;SDS_P1;SDS_P2;PMS_P1;PMS_P2;Temp;Humidity;BMP_temperature;BMP_pressure;BME280_temperature;BME280_humidity;BME280_pressure;Samples;Min_cycle;Max_cycle;Signal;HPM_P1;HPM_P2
2024/04/12 00:00:21;;;;;;;;;;;21.40;51.00;;;;;;1546303;75;1618;-69
2024/04/12 00:02:26;;;;;;;;;;;21.40;51.10;;;;;;1554611;75;1943;-70
2024/04/12 00:04:27;;;;;;;;;;;21.40;51.10;;;;;;1553305;75;1731;-72
2024/04/12 00:06:30;;;;;;;;;;;21.50;51.30;;;;;;1553123;75;726;-73
2024/04/12 00:08:32;;;;;;;;;;;21.40;51.10;;;;;;1558313;75;1140;-69
2024/04/12 00:10:34;;;;;;;;;;;21.40;51.10;;;;;;1553844;75;727;-68
2024/04/12 00:12:38;;;;;;;;;;;21.40;51.10;;;;;;1549355;75;802;-69
2024/04/12 00:14:43;;;;;;;;;;;21.40;51.10;;;;;;1545429;75;734;-73
2024/04/12 00:16:43;;;;;;;;;;;21.40;51.10;;;;;;1547519;75;1561;-69
2024/04/12 00:18:46;;;;;;;;;;;21.50;51.30;;;;;;1555404;75;1113;-72
2024/04/12 00:20:48;;;;;;;;;;;21.40;51.20;;;;;;1550625;75;1907;-72
2024/04/12 00:22:55;;;;;;;;;;;21.40;51.20;;;;;;1551736;75;670;-70
2024/04/12 00:24:54;;;;;;;;;;;21.50;51.30;;;;;;1550496;75;1622;-69
2024/04/12 00:26:56;;;;;;;;;;;21.40;51.20;;;;;;1550989;75;800;-69
2024/04/12 00:28:58;;;;;;;;;;;21.30;51.20;;;;;;1549059;75;1161;-69
2024/04/12 00:31:00;;;;;;;;;;;21.30;51.20;;;;;;1547785;75;666;-71
2024/04/12 00:33:08;;;;;;;;;;;21.40;51.20;;;;;;1544235;75;729;-70
2024/04/12 00:35:11;;;;;;;;;;;21.40;51.20;;;;;;1541971;75;1711;-70
2024/04/12 00:37:15;;;;;;;;;;;21.50;51.30;;;;;;1550560;74;1645;-68
2024/04/12 00:39:35;;;;;;;;;;;21.40;51.20;;;;;;1554796;74;1605;-72
2024/04/12 00:41:19;;;;;;;;;;;21.30;51.20;;;;;;1557797;75;1936;-72
2024/04/12 00:43:27;;;;;;;;;;;21.40;51.30;;;;;;1559937;74;710;-75
2024/04/12 00:45:39;;;;;;;;;;;21.40;51.20;;;;;;1549897;74;1662;-69
2024/04/12 00:47:31;;;;;;;;;;;21.50;51.30;;;;;;1547398;75;1809;-71
2024/04/12 00:49:32;;;;;;;;;;;21.30;51.20;;;;;;1552472;75;1694;-74
2024/04/12 00:51:34;;;;;;;;;;;21.40;51.20;;;;;;1546824;74;683;-69
2024/04/12 00:53:38;;;;;;;;;;;21.40;51.30;;;;;;1555463;74;1570;-71
2024/04/12 00:55:40;;;;;;;;;;;21.30;51.20;;;;;;1545928;75;653;-69
2024/04/12 00:57:42;;;;;;;;;;;21.40;51.30;;;;;;1551749;75;692;-71
2024/04/12 00:59:44;;;;;;;;;;;21.40;51.20;;;;;;1544958;74;1115;-67
2024/04/12 01:01:46;;;;;;;;;;;21.40;51.20;;;;;;1544835;74;1943;-73
2024/04/12 01:03:54;;;;;;;;;;;21.40;51.20;;;;;;1554104;74;692;-71
2024/04/12 01:05:51;;;;;;;;;;;21.40;51.20;;;;;;1546058;74;1578;-71
2024/04/12 01:07:55;;;;;;;;;;;21.40;51.20;;;;;;1557418;75;1368;-72
2024/04/12 01:09:57;;;;;;;;;;;21.40;51.20;;;;;;1547370;75;1698;-74
2024/04/12 01:11:59;;;;;;;;;;;21.40;51.30;;;;;;1560051;74;789;-71
2024/04/12 01:14:01;;;;;;;;;;;21.40;51.30;;;;;;1556757;75;688;-70
2024/04/12 01:16:05;;;;;;;;;;;21.40;51.20;;;;;;1555217;74;597;-73
2024/04/12 01:18:16;;;;;;;;;;;21.40;51.20;;;;;;1560883;74;1136;-73
2024/04/12 01:20:11;;;;;;;;;;;21.40;51.20;;;;;;1544878;75;1567;-69
2024/04/12 01:22:14;;;;;;;;;;;21.40;51.20;;;;;;1546175;74;1930;-72
2024/04/12 01:24:16;;;;;;;;;;;21.40;51.20;;;;;;1554301;74;682;-70
2024/04/12 01:26:18;;;;;;;;;;;21.40;51.20;;;;;;1549358;74;693;-69
2024/04/12 01:28:20;;;;;;;;;;;21.40;51.20;;;;;;1556458;74;1131;-71
2024/04/12 01:30:22;;;;;;;;;;;21.40;51.20;;;;;;1550979;75;824;-68
2024/04/12 01:32:24;;;;;;;;;;;21.40;51.20;;;;;;1547611;75;789;-68
2024/04/12 01:34:29;;;;;;;;;;;21.40;51.20;;;;;;1547367;75;1591;-72
2024/04/12 01:36:32;;;;;;;;;;;21.40;51.20;;;;;;1541084;75;1422;-71
2024/04/12 01:38:37;;;;;;;;;;;21.30;51.30;;;;;;1555911;74;1185;-69
2024/04/12 01:40:39;;;;;;;;;;;21.40;51.30;;;;;;1555487;74;706;-73
2024/04/12 01:42:46;;;;;;;;;;;21.40;51.30;;;;;;1553445;75;1910;-74
2024/04/12 01:45:13;;;;;;;;;;;21.40;51.30;;;;;;1519853;76;1246;-71
2024/04/12 01:46:48;;;;;;;;;;;21.40;51.30;;;;;;1499402;78;1558;-72
2024/04/12 01:48:51;;;;;;;;;;;21.30;51.30;;;;;;1510274;77;1141;-74
2024/04/12 01:50:53;;;;;;;;;;;21.40;51.30;;;;;;1507335;78;1426;-75
2024/04/12 01:52:57;;;;;;;;;;;21.30;51.30;;;;;;1496218;78;675;-69
2024/04/12 01:55:05;;;;;;;;;;;21.40;51.20;;;;;;1499041;78;728;-72
2024/04/12 01:57:07;;;;;;;;;;;21.40;51.20;;;;;;1500288;78;709;-70
2024/04/12 01:59:11;;;;;;;;;;;21.40;51.30;;;;;;1509188;78;1111;-72
2024/04/12 02:01:14;;;;;;;;;;;21.40;51.30;;;;;;1503442;77;1929;-69
2024/04/12 02:03:17;;;;;;;;;;;21.40;51.30;;;;;;1501047;78;1536;-70
2024/04/12 02:05:37;;;;;;;;;;;21.30;51.30;;;;;;1495239;78;717;-76
2024/04/12 02:07:39;;;;;;;;;;;21.30;51.30;;;;;;1484452;78;1322;-73
2024/04/12 02:09:29;;;;;;;;;;;21.30;51.30;;;;;;1499435;78;1616;-73
2024/04/12 02:11:31;;;;;;;;;;;21.40;51.30;;;;;;1505611;77;686;-72
2024/04/12 02:13:36;;;;;;;;;;;21.30;51.30;;;;;;1498248;78;685;-73
2024/04/12 02:15:40;;;;;;;;;;;21.30;51.30;;;;;;1503541;78;713;-70
2024/04/12 02:17:41;;;;;;;;;;;21.30;51.30;;;;;;1501263;78;1552;-74
2024/04/12 02:19:46;;;;;;;;;;;21.30;51.30;;;;;;1497459;77;1108;-68
2024/04/12 02:21:47;;;;;;;;;;;21.30;51.30;;;;;;1501292;78;1925;-71
2024/04/12 02:23:52;;;;;;;;;;;21.40;51.30;;;;;;1500267;78;805;-71
2024/04/12 02:25:54;;;;;;;;;;;21.40;51.30;;;;;;1495749;78;1676;-70
2024/04/12 02:27:56;;;;;;;;;;;21.30;51.30;;;;;;1488256;78;1189;-69
2024/04/12 02:29:58;;;;;;;;;;;21.40;51.30;;;;;;1500826;78;595;-67
2024/04/12 02:32:02;;;;;;;;;;;21.30;51.30;;;;;;1504925;78;1443;-73
2024/04/12 02:34:04;;;;;;;;;;;21.30;51.30;;;;;;1496410;78;584;-68
2024/04/12 02:36:12;;;;;;;;;;;21.40;51.30;;;;;;1507189;78;620;-71
2024/04/12 02:38:20;;;;;;;;;;;21.30;51.30;;;;;;1497237;78;1130;-70
2024/04/12 02:40:20;;;;;;;;;;;21.30;51.30;;;;;;1505633;78;1630;-72
2024/04/12 02:42:22;;;;;;;;;;;21.40;51.30;;;;;;1499541;78;1908;-69
2024/04/12 02:44:25;;;;;;;;;;;21.40;51.30;;;;;;1512776;78;702;-71
2024/04/12 02:46:26;;;;;;;;;;;21.30;51.30;;;;;;1509129;78;1567;-72
2024/04/12 02:48:28;;;;;;;;;;;21.30;51.30;;;;;;1508814;78;1176;-70
2024/04/12 02:50:30;;;;;;;;;;;21.40;51.30;;;;;;1514566;77;808;-77
2024/04/12 02:52:33;;;;;;;;;;;21.30;51.30;;;;;;1514199;78;705;-73
2024/04/12 02:54:35;;;;;;;;;;;21.30;51.30;;;;;;1506659;78;796;-69
2024/04/12 02:56:37;;;;;;;;;;;21.30;51.30;;;;;;1513835;78;701;-70
2024/04/12 02:58:44;;;;;;;;;;;21.40;51.30;;;;;;1513929;78;1172;-71
2024/04/12 03:00:46;;;;;;;;;;;21.40;51.30;;;;;;1507862;78;1547;-73
2024/04/12 03:02:55;;;;;;;;;;;21.40;51.40;;;;;;1513564;78;1944;-69
2024/04/12 03:04:54;;;;;;;;;;;21.30;51.40;;;;;;1514051;78;1425;-70
2024/04/12 03:06:56;;;;;;;;;;;21.30;51.40;;;;;;1511663;77;688;-74
2024/04/12 03:09:00;;;;;;;;;;;21.30;51.40;;;;;;1515474;78;1103;-74
2024/04/12 03:11:14;;;;;;;;;;;21.30;51.40;;;;;;1518374;78;671;-73
2024/04/12 03:13:12;;;;;;;;;;;21.30;51.30;;;;;;1509322;78;1662;-74
2024/04/12 03:15:14;;;;;;;;;;;21.30;51.40;;;;;;1508067;78;1478;-74
2024/04/12 03:17:17;;;;;;;;;;;21.30;51.40;;;;;;1512547;78;637;-70
2024/04/12 03:19:19;;;;;;;;;;;21.40;51.40;;;;;;1510124;77;1163;-70
2024/04/12 03:21:21;;;;;;;;;;;21.30;51.40;;;;;;1509480;78;748;-70
2024/04/12 03:23:23;;;;;;;;;;;21.40;51.40;;;;;;1507558;78;1937;-74
2024/04/12 03:25:25;;;;;;;;;;;21.30;51.40;;;;;;1505735;78;799;-72
2024/04/12 03:27:27;;;;;;;;;;;21.30;51.40;;;;;;1507101;78;658;-72
2024/04/12 03:29:29;;;;;;;;;;;21.40;51.50;;;;;;1511738;78;1402;-71
2024/04/12 03:31:33;;;;;;;;;;;21.30;51.40;;;;;;1507681;78;713;-75
2024/04/12 03:33:44;;;;;;;;;;;21.30;51.40;;;;;;1499903;77;1989;-70
2024/04/12 03:35:39;;;;;;;;;;;21.30;51.40;;;;;;1511663;78;1473;-68
2024/04/12 03:37:47;;;;;;;;;;;21.40;51.40;;;;;;1511492;78;749;-73
2024/04/12 03:39:46;;;;;;;;;;;21.30;51.40;;;;;;1501821;78;1683;-68
2024/04/12 03:41:56;;;;;;;;;;;21.30;51.40;;;;;;1495672;78;1943;-72
2024/04/12 03:43:55;;;;;;;;;;;21.30;51.40;;;;;;1499070;78;1867;-69
2024/04/12 03:45:58;;;;;;;;;;;21.30;51.40;;;;;;1504069;78;741;-74
2024/04/12 03:48:04;;;;;;;;;;;21.30;51.50;;;;;;1497749;78;1146;-69
2024/04/12 03:50:12;;;;;;;;;;;21.30;51.40;;;;;;1497949;77;1615;-74
2024/04/12 03:52:19;;;;;;;;;;;21.30;51.40;;;;;;1504096;78;1601;-69
2024/04/12 03:54:12;;;;;;;;;;;21.30;51.40;;;;;;1503155;78;1742;-71
2024/04/12 03:56:14;;;;;;;;;;;21.30;51.40;;;;;;1505811;78;1761;-72
2024/04/12 03:58:22;;;;;;;;;;;21.40;51.40;;;;;;1506262;77;1220;-68
2024/04/12 04:00:21;;;;;;;;;;;21.30;51.40;;;;;;1495784;78;1613;-76
2024/04/12 04:02:24;;;;;;;;;;;21.30;51.40;;;;;;1500886;78;1915;-70
2024/04/12 04:04:28;;;;;;;;;;;21.30;51.40;;;;;;1499597;78;758;-68
2024/04/12 04:06:36;;;;;;;;;;;21.30;51.50;;;;;;1503805;78;720;-72
2024/04/12 04:08:47;;;;;;;;;;;21.30;51.50;;;;;;1493080;78;1675;-70
2024/04/12 04:10:38;;;;;;;;;;;21.30;51.50;;;;;;1498977;78;1710;-72
2024/04/12 04:12:45;;;;;;;;;;;21.40;51.50;;;;;;1506163;77;688;-69
2024/04/12 04:14:49;;;;;;;;;;;21.30;51.50;;;;;;1505184;78;1639;-70
2024/04/12 04:16:51;;;;;;;;;;;21.30;51.50;;;;;;1500214;78;863;-69
2024/04/12 04:18:57;;;;;;;;;;;21.30;51.50;;;;;;1502033;78;1253;-70
2024/04/12 04:20:56;;;;;;;;;;;21.30;51.50;;;;;;1506526;78;1600;-69
2024/04/12 04:23:02;;;;;;;;;;;21.40;51.50;;;;;;1510414;78;1941;-71
2024/04/12 04:25:07;;;;;;;;;;;21.30;51.50;;;;;;1507076;78;2149;-67
2024/04/12 04:27:08;;;;;;;;;;;21.30;51.50;;;;;;1512189;78;1730;-67
2024/04/12 04:29:10;;;;;;;;;;;21.40;51.60;;;;;;1504669;78;1511;-68
2024/04/12 04:31:11;;;;;;;;;;;21.30;51.50;;;;;;1498443;78;672;-70
2024/04/12 04:33:13;;;;;;;;;;;21.30;51.60;;;;;;1495706;78;602;-71
2024/04/12 04:35:15;;;;;;;;;;;21.40;51.60;;;;;;1510922;78;759;-70
2024/04/12 04:37:19;;;;;;;;;;;21.30;51.60;;;;;;1499079;78;748;-72
2024/04/12 04:39:23;;;;;;;;;;;21.30;51.60;;;;;;1506397;78;1535;-67
2024/04/12 04:41:27;;;;;;;;;;;21.30;51.60;;;;;;1502293;78;666;-70
2024/04/12 04:43:30;;;;;;;;;;;21.30;51.60;;;;;;1503441;78;1934;-72
2024/04/12 04:45:32;;;;;;;;;;;21.30;51.60;;;;;;1507221;78;679;-72
2024/04/12 04:47:40;;;;;;;;;;;21.30;51.70;;;;;;1508536;78;666;-68
2024/04/12 04:49:42;;;;;;;;;;;21.30;51.70;;;;;;1508645;78;1239;-69
2024/04/12 04:51:45;;;;;;;;;;;21.30;51.60;;;;;;1509523;78;802;-69
2024/04/12 04:53:52;;;;;;;;;;;21.30;51.60;;;;;;1510822;78;1424;-66
2024/04/12 04:55:51;;;;;;;;;;;21.30;51.70;;;;;;1501397;78;1673;-70
2024/04/12 04:57:54;;;;;;;;;;;21.30;51.60;;;;;;1506432;78;721;-72
2024/04/12 05:00:05;;;;;;;;;;;21.30;51.50;;;;;;1502298;78;784;-70
2024/04/12 05:02:03;;;;;;;;;;;21.30;51.40;;;;;;1501150;78;1552;-70
2024/04/12 05:04:04;;;;;;;;;;;21.30;49.90;;;;;;1505510;78;1922;-69
2024/04/12 05:06:06;;;;;;;;;;;21.20;48.90;;;;;;1503919;78;1573;-68
2024/04/12 05:08:08;;;;;;;;;;;21.20;48.00;;;;;;1509733;78;1164;-67
2024/04/12 05:10:14;;;;;;;;;;;21.20;47.40;;;;;;1500250;78;790;-70
2024/04/12 05:12:14;;;;;;;;;;;21.10;46.90;;;;;;1502160;78;1577;-71
2024/04/12 05:16:40;;;;;;;;;;;21.10;46.30;;;;;;1509259;78;879;-68
2024/04/12 05:18:47;;;;;;;;;;;20.90;46.30;;;;;;1509007;77;1150;-68
2024/04/12 05:20:47;;;;;;;;;;;20.90;45.40;;;;;;1505061;78;1564;-68
2024/04/12 05:22:49;;;;;;;;;;;20.90;45.70;;;;;;1508471;78;1921;-69
2024/04/12 05:24:52;;;;;;;;;;;20.80;45.10;;;;;;1505246;78;677;-69
2024/04/12 05:27:01;;;;;;;;;;;20.80;45.20;;;;;;1507598;78;662;-66
2024/04/12 05:28:58;;;;;;;;;;;20.80;45.00;;;;;;1507256;78;1625;-67
2024/04/12 05:30:59;;;;;;;;;;;20.70;45.10;;;;;;1511294;78;650;-67
2024/04/12 05:33:02;;;;;;;;;;;20.70;44.90;;;;;;1502650;78;773;-69
2024/04/12 05:35:06;;;;;;;;;;;20.70;44.70;;;;;;1505708;78;1559;-69
2024/04/12 05:37:08;;;;;;;;;;;20.70;44.70;;;;;;1504638;78;1626;-70
2024/04/12 05:39:11;;;;;;;;;;;20.70;44.60;;;;;;1507170;78;1143;-67
2024/04/12 05:41:15;;;;;;;;;;;20.70;44.70;;;;;;1505631;78;1092;-67
2024/04/12 05:43:16;;;;;;;;;;;20.60;44.40;;;;;;1501672;78;1933;-70
2024/04/12 05:45:21;;;;;;;;;;;20.60;44.30;;;;;;1502091;78;766;-69
2024/04/12 05:47:23;;;;;;;;;;;20.60;44.30;;;;;;1506309;78;722;-70
2024/04/12 05:49:25;;;;;;;;;;;20.60;44.30;;;;;;1502439;78;1689;-70
2024/04/12 05:51:27;;;;;;;;;;;20.60;44.30;;;;;;1506304;78;778;-70
2024/04/12 05:53:33;;;;;;;;;;;20.60;44.20;;;;;;1504396;78;625;-70
2024/04/12 05:55:43;;;;;;;;;;;20.60;44.30;;;;;;1499933;78;598;-69
2024/04/12 05:57:38;;;;;;;;;;;20.90;44.60;;;;;;1507856;77;1680;-67
2024/04/12 05:59:42;;;;;;;;;;;20.60;44.20;;;;;;1503573;77;1165;-69
2024/04/12 06:01:45;;;;;;;;;;;20.60;44.50;;;;;;1506068;78;696;-69
2024/04/12 06:03:53;;;;;;;;;;;20.70;44.70;;;;;;1505566;78;1934;-70
2024/04/12 06:05:55;;;;;;;;;;;20.60;44.50;;;;;;1506057;78;1651;-70
2024/04/12 06:07:58;;;;;;;;;;;20.60;44.30;;;;;;1506776;77;1142;-66
2024/04/12 06:10:01;;;;;;;;;;;20.60;44.10;;;;;;1509470;78;822;-71
2024/04/12 06:12:06;;;;;;;;;;;20.70;44.20;;;;;;1507342;77;639;-69
2024/04/12 06:14:09;;;;;;;;;;;20.60;44.40;;;;;;1502369;78;1742;-69
2024/04/12 06:16:11;;;;;;;;;;;20.70;43.90;;;;;;1496922;77;1470;-69
2024/04/12 06:18:13;;;;;;;;;;;20.60;43.80;;;;;;1502586;78;1507;-67
2024/04/12 06:20:30;;;;;;;;;;;20.70;43.70;;;;;;1507350;77;916;-69
2024/04/12 06:22:20;;;;;;;;;;;20.60;43.40;;;;;;1492798;78;1659;-67
2024/04/12 06:24:29;;;;;;;;;;;20.60;43.50;;;;;;1506039;78;1918;-66
2024/04/12 06:26:31;;;;;;;;;;;20.60;43.50;;;;;;1500546;78;847;-73
2024/04/12 06:28:36;;;;;;;;;;;20.60;43.20;;;;;;1504657;78;1151;-69
2024/04/12 06:30:37;;;;;;;;;;;20.60;43.40;;;;;;1501108;78;1751;-72
2024/04/12 06:32:39;;;;;;;;;;;20.60;43.20;;;;;;1505383;78;728;-67
2024/04/12 06:34:41;;;;;;;;;;;20.60;43.10;;;;;;1505219;78;739;-68
2024/04/12 06:36:56;;;;;;;;;;;20.60;43.20;;;;;;1506505;78;812;-67
2024/04/12 06:38:52;;;;;;;;;;;20.50;43.30;;;;;;1502894;78;2260;-69
2024/04/12 06:41:00;;;;;;;;;;;20.60;43.10;;;;;;1508666;77;1616;-67
2024/04/12 06:43:05;;;;;;;;;;;20.50;43.10;;;;;;1526025;77;1939;-67
2024/04/12 06:45:05;;;;;;;;;;;20.40;43.10;;;;;;1523723;77;1431;-67
2024/04/12 06:47:09;;;;;;;;;;;20.50;43.10;;;;;;1525876;77;685;-68
2024/04/12 06:49:14;;;;;;;;;;;20.40;43.10;;;;;;1529092;77;1178;-68
2024/04/12 06:51:16;;;;;;;;;;;20.50;43.30;;;;;;1525845;77;1560;-70
2024/04/12 06:53:21;;;;;;;;;;;20.50;43.40;;;;;;1526109;77;727;-68
2024/04/12 06:55:22;;;;;;;;;;;20.50;43.50;;;;;;1524070;76;1779;-68
2024/04/12 06:57:25;;;;;;;;;;;20.50;43.60;;;;;;1525741;76;774;-66
2024/04/12 06:59:35;;;;;;;;;;;20.50;43.80;;;;;;1517090;77;1399;-70
2024/04/12 07:01:33;;;;;;;;;;;20.50;43.70;;;;;;1513102;77;1610;-66
2024/04/12 07:03:36;;;;;;;;;;;20.60;43.60;;;;;;1521297;77;1938;-69
2024/04/12 07:05:39;;;;;;;;;;;20.60;43.70;;;;;;1527483;77;735;-69
2024/04/12 07:07:42;;;;;;;;;;;20.60;43.60;;;;;;1529103;77;793;-66
2024/04/12 07:09:45;;;;;;;;;;;20.50;43.60;;;;;;1527554;77;1172;-66
2024/04/12 07:11:47;;;;;;;;;;;20.60;43.60;;;;;;1529939;77;703;-68
2024/04/12 07:13:53;;;;;;;;;;;20.60;43.40;;;;;;1519366;77;1591;-67
2024/04/12 07:16:01;;;;;;;;;;;20.50;43.60;;;;;;1529990;77;720;-67
2024/04/12 07:18:02;;;;;;;;;;;20.60;43.70;;;;;;1528921;77;1639;-67
2024/04/12 07:20:07;;;;;;;;;;;20.50;43.70;;;;;;1529841;77;701;-66
2024/04/12 07:22:18;;;;;;;;;;;20.60;43.50;;;;;;1530167;77;1602;-67
2024/04/12 07:24:15;;;;;;;;;;;20.70;43.70;;;;;;1529054;77;1928;-72
2024/04/12 07:26:39;;;;;;;;;;;20.60;43.40;;;;;;1530244;77;656;-71
2024/04/12 07:28:21;;;;;;;;;;;20.60;43.50;;;;;;1517892;77;1604;-65
2024/04/12 07:30:23;;;;;;;;;;;20.60;43.50;;;;;;1530038;77;679;-68
2024/04/12 07:32:25;;;;;;;;;;;20.60;43.60;;;;;;1530591;77;716;-66
2024/04/12 07:34:30;;;;;;;;;;;20.70;43.70;;;;;;1528036;77;677;-70
2024/04/12 07:36:31;;;;;;;;;;;20.70;43.80;;;;;;1517624;77;1680;-67
2024/04/12 07:38:35;;;;;;;;;;;20.60;43.80;;;;;;1524814;76;1136;-67
2024/04/12 07:40:39;;;;;;;;;;;20.70;43.90;;;;;;1524461;77;1646;-68
2024/04/12 07:42:45;;;;;;;;;;;20.60;43.80;;;;;;1513831;77;1668;-69
2024/04/12 07:44:44;;;;;;;;;;;20.60;43.80;;;;;;1512119;78;1930;-67
2024/04/12 07:46:49;;;;;;;;;;;20.70;43.70;;;;;;1509423;77;779;-66
2024/04/12 07:48:49;;;;;;;;;;;20.70;43.90;;;;;;1513011;77;1865;-70
2024/04/12 07:50:54;;;;;;;;;;;20.70;43.80;;;;;;1525782;76;674;-67
2024/04/12 07:52:58;;;;;;;;;;;20.70;43.90;;;;;;1509824;78;766;-68
2024/04/12 07:55:01;;;;;;;;;;;20.60;43.80;;;;;;1529237;76;1537;-70
2024/04/12 07:57:07;;;;;;;;;;;20.70;43.90;;;;;;1558657;74;710;-67
2024/04/12 07:59:25;;;;;;;;;;;20.70;43.70;;;;;;1561882;74;1557;-70
2024/04/12 08:01:25;;;;;;;;;;;20.70;43.80;;;;;;1552380;74;1442;-73
2024/04/12 08:03:26;;;;;;;;;;;20.70;43.90;;;;;;1560791;74;1927;-68
2024/04/12 08:05:28;;;;;;;;;;;20.70;43.90;;;;;;1563141;74;1571;-68
2024/04/12 08:07:31;;;;;;;;;;;20.70;43.80;;;;;;1566624;74;1517;-73
2024/04/12 08:09:40;;;;;;;;;;;20.70;43.80;;;;;;1564768;74;1634;-69
2024/04/12 08:11:41;;;;;;;;;;;20.70;43.80;;;;;;1554874;74;1686;-71
2024/04/12 08:13:50;;;;;;;;;;;20.70;43.80;;;;;;1563934;74;1640;-68
2024/04/12 08:15:49;;;;;;;;;;;20.80;43.80;;;;;;1568003;75;1546;-68
2024/04/12 08:17:49;;;;;;;;;;;20.80;43.90;;;;;;1567298;74;1620;-70
2024/04/12 08:20:12;;;;;;;;;;;20.80;43.80;;;;;;1568089;74;1121;-76
2024/04/12 08:22:03;;;;;;;;;;;20.90;43.90;;;;;;1555379;74;1472;-70
2024/04/12 08:24:10;;;;;;;;;;;20.80;43.50;;;;;;1564363;74;1934;-69
2024/04/12 08:26:11;;;;;;;;;;;20.80;43.60;;;;;;1561659;74;1491;-75
2024/04/12 08:28:14;;;;;;;;;;;20.90;43.80;;;;;;1560008;74;1567;-67
2024/04/12 08:30:19;;;;;;;;;;;20.80;43.70;;;;;;1563572;74;657;-72
2024/04/12 08:32:27;;;;;;;;;;;20.90;43.70;;;;;;1561189;74;1633;-69
2024/04/12 08:34:24;;;;;;;;;;;20.80;43.70;;;;;;1565146;74;1665;-66
2024/04/12 08:36:26;;;;;;;;;;;20.90;43.90;;;;;;1566661;74;751;-74
2024/04/12 08:38:28;;;;;;;;;;;21.00;44.00;;;;;;1563372;74;1322;-73
2024/04/12 08:40:37;;;;;;;;;;;20.90;44.00;;;;;;1567502;74;681;-69
2024/04/12 08:42:33;;;;;;;;;;;21.00;43.90;;;;;;1557024;74;1485;-67
2024/04/12 08:44:35;;;;;;;;;;;20.90;44.00;;;;;;1555249;74;1947;-69
2024/04/12 08:46:38;;;;;;;;;;;21.00;44.00;;;;;;1559923;74;717;-71
2024/04/12 08:48:41;;;;;;;;;;;21.00;44.00;;;;;;1564136;74;1183;-73
2024/04/12 08:50:48;;;;;;;;;;;21.00;44.00;;;;;;1561414;75;672;-72
2024/04/12 08:52:48;;;;;;;;;;;20.90;44.10;;;;;;1553944;75;1557;-68
2024/04/12 08:54:54;;;;;;;;;;;21.00;44.00;;;;;;1559094;74;696;-74
2024/04/12 08:56:54;;;;;;;;;;;21.00;44.00;;;;;;1555314;74;1628;-72
2024/04/12 08:58:59;;;;;;;;;;;21.00;43.90;;;;;;1560205;74;1182;-73
2024/04/12 09:01:00;;;;;;;;;;;21.00;43.70;;;;;;1561425;74;1633;-75
2024/04/12 09:03:10;;;;;;;;;;;21.00;43.70;;;;;;1566775;75;795;-69
2024/04/12 09:05:08;;;;;;;;;;;21.00;43.80;;;;;;1564069;74;1929;-73
2024/04/12 09:07:12;;;;;;;;;;;21.00;43.90;;;;;;1553401;74;714;-70
2024/04/12 09:09:14;;;;;;;;;;;21.00;43.60;;;;;;1562479;74;1157;-68
2024/04/12 09:11:19;;;;;;;;;;;21.00;43.80;;;;;;1560635;74;693;-68
2024/04/12 09:13:20;;;;;;;;;;;21.00;43.90;;;;;;1555946;74;1652;-68
2024/04/12 09:15:27;;;;;;;;;;;21.00;43.70;;;;;;1569018;74;772;-68
2024/04/12 09:17:29;;;;;;;;;;;21.00;43.70;;;;;;1564962;74;1660;-70
2024/04/12 09:19:38;;;;;;;;;;;21.00;43.80;;;;;;1560157;74;1578;-70
2024/04/12 09:21:47;;;;;;;;;;;21.10;43.80;;;;;;1556700;74;1506;-67
2024/04/12 09:23:41;;;;;;;;;;;21.00;43.80;;;;;;1559421;74;1538;-68
2024/04/12 09:25:59;;;;;;;;;;;21.10;43.90;;;;;;1534215;74;1914;-74
2024/04/12 09:28:02;;;;;;;;;;;21.00;43.90;;;;;;1567311;74;1727;-69
2024/04/12 09:34:55;;;;;;;;;;;21.10;43.60;;;;;;1564244;74;1615;-70
2024/04/12 09:38:54;;;;;;;;;;;21.00;43.60;;;;;;1518992;74;1089;-68
2024/04/12 09:41:03;;;;;;;;;;;21.00;43.60;;;;;;1562345;74;659;-72
2024/04/12 09:45:08;;;;;;;;;;;21.00;43.70;;;;;;1565616;75;1916;-70
2024/04/12 10:38:37;;;;;;;;;;;21.10;43.10;;;;;;1547877;75;1635;-69
2024/04/12 10:40:40;;;;;;;;;;;21.10;43.10;;;;;;1566354;74;748;-70
2024/04/12 10:42:48;;;;;;;;;;;21.10;43.00;;;;;;1557325;74;981;-71
2024/04/12 10:44:51;;;;;;;;;;;21.10;42.90;;;;;;1549545;75;1924;-69
2024/04/12 10:46:54;;;;;;;;;;;21.10;43.10;;;;;;1550456;76;748;-71
2024/04/12 10:48:59;;;;;;;;;;;21.10;43.00;;;;;;1555603;75;1149;-70
2024/04/12 10:51:00;;;;;;;;;;;21.00;42.80;;;;;;1553283;75;1735;-68
2024/04/12 10:53:06;;;;;;;;;;;21.10;42.80;;;;;;1552471;75;738;-69
2024/04/12 10:55:09;;;;;;;;;;;21.10;42.90;;;;;;1543215;75;1735;-69
2024/04/12 10:57:13;;;;;;;;;;;21.10;42.30;;;;;;1557065;76;733;-69
2024/04/12 10:59:26;;;;;;;;;;;21.00;42.60;;;;;;1556864;75;1345;-70
2024/04/12 11:01:26;;;;;;;;;;;21.00;42.60;;;;;;1550111;75;1787;-70
2024/04/12 11:03:23;;;;;;;;;;;21.10;42.70;;;;;;1558347;76;1638;-70
2024/04/12 11:05:38;;;;;;;;;;;21.10;42.70;;;;;;1544348;76;1928;-68
2024/04/12 11:07:30;;;;;;;;;;;21.00;42.60;;;;;;1546037;76;1680;-72
2024/04/12 11:09:38;;;;;;;;;;;21.00;42.60;;;;;;1555138;75;1125;-69
2024/04/12 11:11:43;;;;;;;;;;;21.00;42.40;;;;;;1553323;76;1546;-68
2024/04/12 11:13:46;;;;;;;;;;;21.00;42.30;;;;;;1538085;75;1685;-69
2024/04/12 11:31:47;;;;;;;;;;;21.10;42.50;;;;;;1522440;75;1200;-71
2024/04/12 11:33:53;;;;;;;;;;;21.10;42.70;;;;;;1557493;75;1420;-68
2024/04/12 11:35:54;;;;;;;;;;;21.10;42.80;;;;;;1553623;75;1573;-68
2024/04/12 11:37:57;;;;;;;;;;;21.00;42.70;;;;;;1539007;75;712;-70
2024/04/12 11:40:03;;;;;;;;;;;21.00;42.60;;;;;;1548604;76;1475;-73
2024/04/12 11:42:04;;;;;;;;;;;21.00;42.70;;;;;;1551886;75;1911;-72
2024/04/12 11:44:05;;;;;;;;;;;21.00;42.80;;;;;;1560167;76;1064;-73
2024/04/12 11:46:10;;;;;;;;;;;21.10;42.90;;;;;;1559092;74;1943;-68
2024/04/12 11:48:14;;;;;;;;;;;21.10;42.70;;;;;;1561899;75;1192;-69
2024/04/12 11:50:16;;;;;;;;;;;21.10;42.60;;;;;;1563258;74;1646;-73
2024/04/12 11:52:18;;;;;;;;;;;21.00;42.50;;;;;;1558631;74;828;-69
2024/04/12 11:54:22;;;;;;;;;;;21.10;42.60;;;;;;1560630;75;1574;-69
2024/04/12 11:56:23;;;;;;;;;;;21.10;42.60;;;;;;1551920;74;1659;-67
2024/04/12 11:58:28;;;;;;;;;;;21.00;42.50;;;;;;1560036;74;1153;-69
2024/04/12 12:00:31;;;;;;;;;;;21.10;42.60;;;;;;1557635;74;1621;-69
2024/04/12 12:02:32;;;;;;;;;;;21.00;42.30;;;;;;1558923;75;1482;-70
2024/04/12 12:04:34;;;;;;;;;;;21.00;42.20;;;;;;1555131;74;1939;-68
2024/04/12 12:06:37;;;;;;;;;;;21.00;42.30;;;;;;1565330;74;794;-68
2024/04/12 12:08:41;;;;;;;;;;;21.00;42.10;;;;;;1555077;74;1344;-69
2024/04/12 12:10:45;;;;;;;;;;;21.00;42.30;;;;;;1563480;74;733;-70
2024/04/12 12:12:47;;;;;;;;;;;21.00;42.50;;;;;;1567522;74;688;-71
2024/04/12 12:14:52;;;;;;;;;;;21.00;42.60;;;;;;1565886;74;673;-69
2024/04/12 12:16:57;;;;;;;;;;;21.10;42.80;;;;;;1562857;74;646;-69
2024/04/12 12:18:58;;;;;;;;;;;21.00;42.80;;;;;;1561200;74;1707;-71
2024/04/12 12:21:00;;;;;;;;;;;21.00;42.80;;;;;;1564668;74;887;-68
2024/04/12 12:23:01;;;;;;;;;;;21.10;43.10;;;;;;1564296;74;1618;-69
2024/04/12 12:25:07;;;;;;;;;;;21.10;43.00;;;;;;1566402;75;1952;-69
2024/04/12 12:27:12;;;;;;;;;;;21.00;42.90;;;;;;1567006;74;1788;-70
2024/04/12 12:29:13;;;;;;;;;;;21.10;43.10;;;;;;1554037;74;1570;-73
2024/04/12 12:31:17;;;;;;;;;;;21.00;43.00;;;;;;1557048;74;1655;-69
2024/04/12 12:33:19;;;;;;;;;;;21.00;43.10;;;;;;1559013;74;1524;-69
2024/04/12 12:35:25;;;;;;;;;;;21.00;43.10;;;;;;1559779;74;595;-73
2024/04/12 12:37:28;;;;;;;;;;;21.10;43.30;;;;;;1558207;75;1542;-68
2024/04/12 12:39:31;;;;;;;;;;;21.10;43.20;;;;;;1555859;74;1645;-70
2024/04/12 12:41:35;;;;;;;;;;;21.10;43.20;;;;;;1560008;74;690;-67
2024/04/12 12:43:42;;;;;;;;;;;21.10;43.30;;;;;;1544900;74;1653;-69
2024/04/12 12:45:40;;;;;;;;;;;21.00;43.20;;;;;;1537531;75;1923;-70
2024/04/12 12:47:44;;;;;;;;;;;21.10;43.30;;;;;;1548621;75;780;-69
2024/04/12 12:49:46;;;;;;;;;;;21.10;43.30;;;;;;1533049;75;1206;-68
2024/04/12 12:51:48;;;;;;;;;;;21.10;43.40;;;;;;1540282;75;1665;-72
2024/04/12 12:53:53;;;;;;;;;;;21.10;43.40;;;;;;1541064;75;689;-68
2024/04/12 12:55:55;;;;;;;;;;;21.10;43.30;;;;;;1535597;75;1722;-69
2024/04/12 12:58:12;;;;;;;;;;;21.10;43.30;;;;;;1537412;75;721;-69
2024/04/12 13:00:22;;;;;;;;;;;21.00;43.20;;;;;;1540112;75;688;-68
2024/04/12 13:02:17;;;;;;;;;;;21.00;43.20;;;;;;1547319;75;1899;-71
2024/04/12 13:04:19;;;;;;;;;;;21.10;43.40;;;;;;1540435;76;1361;-71
2024/04/12 13:06:23;;;;;;;;;;;21.10;43.50;;;;;;1553419;75;1942;-68
2024/04/12 13:08:26;;;;;;;;;;;21.10;43.40;;;;;;1552391;75;1095;-68
2024/04/12 13:10:33;;;;;;;;;;;21.10;43.40;;;;;;1546764;75;929;-69
2024/04/12 13:12:32;;;;;;;;;;;21.10;43.40;;;;;;1542778;75;1799;-71
2024/04/12 13:14:36;;;;;;;;;;;21.00;43.40;;;;;;1547231;75;681;-69
2024/04/12 13:16:41;;;;;;;;;;;21.00;43.40;;;;;;1536274;75;1550;-69
2024/04/12 13:18:45;;;;;;;;;;;21.10;43.40;;;;;;1547544;75;1865;-70
2024/04/12 13:20:44;;;;;;;;;;;21.10;43.50;;;;;;1541533;75;1869;-69
2024/04/12 13:22:51;;;;;;;;;;;21.10;43.50;;;;;;1548378;75;667;-68
2024/04/12 13:24:51;;;;;;;;;;;21.00;43.40;;;;;;1539868;75;1510;-68
2024/04/12 13:26:54;;;;;;;;;;;21.10;43.50;;;;;;1537853;75;1896;-71
2024/04/12 13:28:56;;;;;;;;;;;21.10;43.40;;;;;;1537119;75;1114;-70
2024/04/12 13:30:58;;;;;;;;;;;21.10;43.40;;;;;;1551384;75;784;-70